Time;durP1;ratioP1;P1;durP2;ratioP2;P2;SDS_P1;SDS_P2;PMS_P1;PMS_P2;Temp;Humidity;BMP_temperature;BMP_pressure;BME280_temperature;BME280_humidity;BME280_pressure;Samples;Min_cycle;Max_cycle;Signal;HPM_P1;HPM_P2
2023/10/17 00:01:34;;;;;;;2.25;0.90;;;8.00;99.90;;;;;;5057594;28;20060;-78
2023/10/17 00:06:45;;;;;;;2.50;0.80;;;8.00;99.90;;;;;;5051602;28;20064;-77
2023/10/17 00:09:36;;;;;;;2.60;0.90;;;8.10;99.90;;;;;;5056446;28;20466;-78
2023/10/17 00:11:58;;;;;;;3.58;1.58;;;8.10;99.90;;;;;;5048546;28;20082;-78
2023/10/17 00:14:25;;;;;;;9.90;1.33;;;8.20;99.90;;;;;;5051621;28;20120;-78
2023/10/17 00:16:54;;;;;;;2.28;1.00;;;8.20;99.90;;;;;;5049257;28;20475;-78
2023/10/17 00:19:25;;;;;;;5.07;1.23;;;8.30;99.90;;;;;;5050172;28;20441;-78
2023/10/17 00:21:51;;;;;;;3.28;1.02;;;8.40;99.90;;;;;;5050825;28;20021;-78
2023/10/17 00:24:19;;;;;;;2.40;0.77;;;8.40;99.90;;;;;;5050118;28;20037;-78
2023/10/17 00:26:47;;;;;;;2.83;0.90;;;8.30;99.90;;;;;;5053769;28;20081;-78
2023/10/17 00:29:13;;;;;;;4.47;1.20;;;8.20;99.90;;;;;;5054520;28;20031;-77
2023/10/17 00:31:39;;;;;;;3.13;0.73;;;8.10;99.90;;;;;;5055485;28;20045;-77
2023/10/17 00:34:21;;;;;;;2.22;0.68;;;8.00;99.90;;;;;;5049722;28;20122;-78
2023/10/17 00:36:50;;;;;;;2.15;0.90;;;8.00;99.90;;;;;;5055935;28;20062;-78
2023/10/17 00:39:23;;;;;;;2.78;0.90;;;8.00;99.90;;;;;;5054194;28;20025;-77
2023/10/17 00:44:24;;;;;;;2.03;0.80;;;8.00;99.90;;;;;;5058495;28;20078;-78
2023/10/17 00:46:50;;;;;;;4.50;1.10;;;8.10;99.90;;;;;;5054207;28;20020;-78
2023/10/17 00:49:15;;;;;;;2.88;1.20;;;8.10;99.90;;;;;;5048740;28;20376;-78
2023/10/17 00:51:42;;;;;;;2.60;0.90;;;8.10;99.90;;;;;;5055934;28;20031;-78
2023/10/17 00:54:18;;;;;;;1.63;1.00;;;8.10;99.90;;;;;;5050367;28;20083;-78
2023/10/17 00:56:43;;;;;;;2.42;0.90;;;8.00;99.90;;;;;;5056762;28;20029;-77
2023/10/17 00:59:09;;;;;;;4.63;1.10;;;7.80;99.90;;;;;;5052458;28;20033;-77
2023/10/17 01:01:36;;;;;;;5.57;1.00;;;8.00;99.90;;;;;;5049397;28;20025;-77
2023/10/17 01:04:01;;;;;;;5.03;1.15;;;8.10;99.90;;;;;;5053130;28;20158;-77
2023/10/17 01:08:57;;;;;;;3.85;0.80;;;8.00;99.90;;;;;;5057103;28;20040;-78
2023/10/17 01:11:30;;;;;;;4.03;1.40;;;7.80;99.90;;;;;;5050561;28;20036;-78
2023/10/17 01:13:57;;;;;;;2.80;0.93;;;7.80;99.90;;;;;;5054258;28;20033;-77
2023/10/17 01:16:27;;;;;;;3.65;1.52;;;7.80;99.90;;;;;;5052299;28;20037;-78
2023/10/17 01:18:53;;;;;;;4.55;1.40;;;7.80;99.90;;;;;;5054286;28;20070;-78
2023/10/17 01:21:20;;;;;;;3.63;1.20;;;7.60;99.90;;;;;;5061631;28;20149;-78
2023/10/17 01:23:48;;;;;;;3.63;0.70;;;7.50;99.90;;;;;;5053486;28;20095;-77
2023/10/17 01:26:20;;;;;;;2.28;0.68;;;7.50;99.90;;;;;;5052638;28;20021;-78
2023/10/17 01:28:48;;;;;;;6.28;1.05;;;7.50;99.90;;;;;;5052117;28;20395;-77
2023/10/17 01:31:15;;;;;;;5.15;1.30;;;7.50;99.90;;;;;;5049082;28;20039;-78
2023/10/17 01:33:45;;;;;;;2.90;1.17;;;7.60;99.90;;;;;;5056093;28;20032;-78
2023/10/17 01:36:13;;;;;;;2.38;0.95;;;7.70;99.90;;;;;;5058374;28;20033;-77
2023/10/17 01:38:41;;;;;;;4.57;1.33;;;7.50;99.90;;;;;;5060349;28;20032;-78
2023/10/17 01:41:09;;;;;;;4.47;1.77;;;7.40;99.90;;;;;;5052288;28;20028;-77
2023/10/17 01:43:40;;;;;;;2.13;1.15;;;7.50;99.90;;;;;;5051268;28;20094;-78
2023/10/17 01:46:11;;;;;;;4.15;1.00;;;7.40;99.90;;;;;;5053714;28;20017;-78
2023/10/17 01:48:37;;;;;;;2.80;0.77;;;7.30;99.90;;;;;;5050209;28;20033;-77
2023/10/17 01:51:06;;;;;;;7.50;1.30;;;7.20;99.90;;;;;;5052481;28;20064;-77
2023/10/17 01:53:33;;;;;;;5.43;1.33;;;7.10;99.90;;;;;;5050123;28;20360;-78
2023/10/17 01:56:06;;;;;;;4.07;1.42;;;7.20;99.90;;;;;;5050006;28;20036;-77
2023/10/17 01:58:37;;;;;;;4.10;1.10;;;7.20;99.90;;;;;;5048195;28;20040;-78
2023/10/17 02:01:03;;;;;;;3.55;1.02;;;7.00;99.90;;;;;;5062575;28;20445;-78
2023/10/17 02:03:30;;;;;;;1.95;0.68;;;6.90;99.90;;;;;;5058995;28;20024;-77
2023/10/17 02:05:55;;;;;;;4.72;1.10;;;7.00;99.90;;;;;;5053254;28;20077;-78
2023/10/17 02:08:22;;;;;;;2.33;1.20;;;7.00;99.90;;;;;;5054720;28;20060;-78
2023/10/17 02:10:48;;;;;;;3.35;1.40;;;7.00;99.90;;;;;;5055988;28;20031;-78
2023/10/17 02:13:14;;;;;;;4.28;1.08;;;7.00;99.90;;;;;;5054399;28;20039;-78
2023/10/17 02:15:40;;;;;;;2.28;0.90;;;7.00;99.90;;;;;;5060044;28;20214;-78
2023/10/17 02:18:12;;;;;;;4.85;1.33;;;7.10;99.90;;;;;;5064748;28;20462;-78
2023/10/17 02:20:44;;;;;;;2.75;1.25;;;7.10;99.90;;;;;;5050916;28;20438;-77
2023/10/17 02:23:19;;;;;;;4.22;1.50;;;7.00;99.90;;;;;;5050452;28;20382;-78
2023/10/17 02:25:45;;;;;;;3.65;1.20;;;7.00;99.90;;;;;;5051670;28;20025;-77
2023/10/17 02:28:11;;;;;;;5.47;2.15;;;7.20;99.90;;;;;;5058242;28;20375;-78
2023/10/17 02:30:37;;;;;;;3.55;1.67;;;7.30;99.90;;;;;;5055416;28;20184;-78
2023/10/17 02:33:11;;;;;;;2.92;1.42;;;7.40;99.90;;;;;;5051874;28;20475;-77
2023/10/17 02:35:42;;;;;;;3.35;1.05;;;7.50;99.90;;;;;;5053443;28;20124;-78
2023/10/17 02:38:08;;;;;;;3.50;1.42;;;7.50;99.90;;;;;;5058842;28;20075;-78
2023/10/17 02:40:34;;;;;;;3.95;1.27;;;7.60;99.90;;;;;;5055010;28;20052;-77
2023/10/17 02:43:01;;;;;;;2.65;1.13;;;7.50;99.90;;;;;;5054574;28;20032;-77
2023/10/17 02:45:26;;;;;;;3.92;1.30;;;7.50;99.90;;;;;;5049855;28;20107;-78
2023/10/17 02:47:57;;;;;;;3.38;1.08;;;7.20;99.90;;;;;;5060447;28;20115;-77
2023/10/17 02:52:58;;;;;;;3.03;1.33;;;7.40;99.90;;;;;;5050106;28;20033;-77
2023/10/17 02:55:23;;;;;;;5.35;1.40;;;7.30;99.90;;;;;;5051398;28;20051;-78
2023/10/17 02:57:53;;;;;;;3.47;1.60;;;7.40;99.90;;;;;;5055683;28;20449;-77
2023/10/17 03:00:23;;;;;;;2.65;1.25;;;7.50;99.90;;;;;;5055050;28;20055;-77
2023/10/17 03:02:52;;;;;;;3.60;1.50;;;7.50;99.90;;;;;;5056566;28;20052;-78
2023/10/17 03:05:18;;;;;;;4.25;1.08;;;7.50;99.90;;;;;;5049365;28;20060;-78
2023/10/17 03:07:50;;;;;;;3.35;1.23;;;7.40;99.90;;;;;;5045980;28;20029;-78
2023/10/17 03:10:21;;;;;;;3.42;1.50;;;7.10;99.90;;;;;;5053489;28;20422;-78
2023/10/17 03:12:55;;;;;;;2.88;1.30;;;7.00;99.90;;;;;;5054057;28;20089;-78
2023/10/17 03:15:23;;;;;;;3.85;1.40;;;7.10;99.90;;;;;;5053971;28;20108;-78
2023/10/17 03:18:00;;;;;;;3.28;1.15;;;7.30;99.90;;;;;;5053891;28;20055;-78
2023/10/17 03:20:36;;;;;;;3.20;1.10;;;7.40;99.90;;;;;;5046623;28;20048;-78
2023/10/17 03:23:08;;;;;;;5.88;1.13;;;7.40;99.90;;;;;;5043037;28;20033;-78
2023/10/17 03:25:38;;;;;;;2.17;1.02;;;7.60;99.90;;;;;;5047838;28;20625;-77
2023/10/17 03:28:08;;;;;;;2.90;1.25;;;7.50;99.90;;;;;;5050180;28;20021;-78
2023/10/17 03:30:35;;;;;;;3.20;1.10;;;7.40;99.90;;;;;;5045353;28;20036;-77
2023/10/17 03:35:29;;;;;;;2.95;1.20;;;7.30;99.90;;;;;;5048765;28;20395;-80
2023/10/17 03:37:55;;;;;;;3.75;1.25;;;7.20;99.90;;;;;;5052949;28;20048;-78
2023/10/17 03:40:34;;;;;;;8.52;1.45;;;7.30;99.90;;;;;;5048162;28;20372;-78
2023/10/17 03:43:11;;;;;;;3.22;1.25;;;7.30;99.90;;;;;;5055453;28;20025;-79
2023/10/17 03:45:52;;;;;;;4.70;1.25;;;7.40;99.90;;;;;;5045862;28;20542;-78
2023/10/17 03:48:20;;;;;;;3.88;1.10;;;7.60;99.90;;;;;;5054957;28;20437;-78
2023/10/17 03:55:44;;;;;;;3.97;1.50;;;7.20;99.90;;;;;;5049765;28;20131;-79
2023/10/17 04:00:49;;;;;;;2.35;0.90;;;7.20;99.90;;;;;;5050932;28;20040;-78
2023/10/17 04:03:21;;;;;;;3.70;1.38;;;7.10;99.90;;;;;;5044575;28;20382;-79
2023/10/17 04:06:02;;;;;;;3.30;1.48;;;7.20;99.90;;;;;;5042003;28;20068;-78
2023/10/17 04:08:31;;;;;;;5.40;1.20;;;7.10;99.90;;;;;;5048009;28;20029;-78
2023/10/17 04:11:17;;;;;;;3.38;1.48;;;7.00;99.90;;;;;;5044042;28;20035;-78
2023/10/17 04:13:49;;;;;;;7.63;1.80;;;7.00;99.90;;;;;;5045585;28;20032;-78
2023/10/17 04:16:45;;;;;;;4.63;1.88;;;6.90;99.90;;;;;;5053824;28;20115;-79
2023/10/17 04:19:20;;;;;;;3.53;1.50;;;6.70;99.90;;;;;;5043422;28;20055;-78
2023/10/17 04:22:02;;;;;;;4.72;1.75;;;6.70;99.90;;;;;;5052006;28;20033;-78
2023/10/17 04:24:34;;;;;;;3.42;1.17;;;6.70;99.90;;;;;;5041927;28;20029;-78
2023/10/17 04:27:07;;;;;;;2.60;1.00;;;6.70;99.90;;;;;;5047531;28;21030;-78
2023/10/17 04:29:36;;;;;;;4.20;1.30;;;6.80;99.90;;;;;;5045375;28;20120;-78
2023/10/17 04:32:04;;;;;;;3.65;1.30;;;6.80;99.90;;;;;;5048229;28;20530;-78
2023/10/17 04:34:32;;;;;;;2.08;0.80;;;6.70;99.90;;;;;;5055508;28;20036;-78
2023/10/17 04:37:03;;;;;;;4.82;1.50;;;6.60;99.90;;;;;;5044889;28;20032;-79
2023/10/17 04:39:35;;;;;;;3.78;1.45;;;6.60;99.90;;;;;;5043014;28;20038;-78
2023/10/17 04:42:05;;;;;;;2.97;1.10;;;6.60;99.90;;;;;;5041829;28;20073;-78
2023/10/17 04:44:50;;;;;;;5.95;1.40;;;6.70;99.90;;;;;;5043018;28;20032;-78
2023/10/17 04:47:27;;;;;;;2.03;1.08;;;7.10;99.90;;;;;;5047046;28;20024;-78
2023/10/17 04:49:53;;;;;;;4.55;0.95;;;7.00;99.90;;;;;;5048805;28;20046;-78
2023/10/17 04:52:29;;;;;;;3.58;1.13;;;6.80;99.90;;;;;;5046736;28;20036;-78
2023/10/17 04:55:01;;;;;;;4.20;1.38;;;6.70;99.90;;;;;;5040739;28;20044;-78
2023/10/17 05:00:37;;;;;;;3.90;1.30;;;6.80;99.90;;;;;;5054422;28;20036;-78
2023/10/17 05:03:13;;;;;;;2.13;0.88;;;6.80;99.90;;;;;;5049203;28;20033;-78
2023/10/17 05:06:00;;;;;;;3.45;1.10;;;6.60;99.90;;;;;;5042356;28;23052;-78
2023/10/17 05:08:32;;;;;;;4.93;1.15;;;6.60;99.90;;;;;;5041613;28;20087;-78
2023/10/17 06:17:03;;;;;;;4.22;1.67;;;6.50;99.90;;;;;;5052798;28;20126;-78
2023/10/17 06:19:32;;;;;;;3.05;1.02;;;6.50;99.90;;;;;;5053409;28;20119;-78
2023/10/17 06:27:12;;;;;;;4.10;1.30;;;6.80;99.90;;;;;;5045637;28;20449;-78
2023/10/17 06:34:33;;;;;;;5.25;1.48;;;6.80;99.90;;;;;;5048367;28;20540;-78
2023/10/17 06:37:01;;;;;;;2.72;0.98;;;6.70;99.90;;;;;;5052051;28;20132;-79
2023/10/17 06:39:36;;;;;;;3.10;1.25;;;6.70;99.90;;;;;;5051457;28;20094;-79
2023/10/17 06:42:15;;;;;;;3.38;1.30;;;6.80;99.90;;;;;;5059168;28;20032;-80
2023/10/17 06:45:18;;;;;;;3.05;1.35;;;6.90;99.90;;;;;;5053625;28;20036;-78
2023/10/17 06:47:47;;;;;;;4.07;1.42;;;6.80;99.90;;;;;;5047313;28;20141;-76
2023/10/17 06:55:21;;;;;;;3.05;1.42;;;6.90;99.90;;;;;;5048809;28;20112;-78
2023/10/17 06:57:50;;;;;;;3.30;1.38;;;7.00;99.90;;;;;;5049163;28;20446;-78
2023/10/17 07:03:02;;;;;;;3.60;1.60;;;7.20;99.90;;;;;;5048018;28;20133;-79
2023/10/17 07:05:27;;;;;;;3.13;1.05;;;7.30;99.90;;;;;;5045714;28;20676;-78
2023/10/17 07:07:53;;;;;;;3.20;1.80;;;7.40;99.90;;;;;;5053496;28;20085;-77
2023/10/17 07:13:32;;;;;;;3.53;1.35;;;7.40;99.90;;;;;;5054076;28;20824;-77
2023/10/17 07:16:16;;;;;;;3.90;1.27;;;7.40;99.90;;;;;;5046046;28;20064;-78
2023/10/17 07:18:51;;;;;;;4.28;1.40;;;7.40;99.90;;;;;;5057955;28;20024;-78
2023/10/17 07:21:22;;;;;;;2.92;1.40;;;7.50;99.90;;;;;;5050129;28;20025;-78
2023/10/17 07:23:48;;;;;;;4.28;1.55;;;7.50;99.90;;;;;;5055577;28;20036;-78
2023/10/17 07:26:18;;;;;;;3.97;1.50;;;7.50;99.90;;;;;;5048908;28;20536;-79
2023/10/17 07:28:52;;;;;;;2.63;1.38;;;7.40;99.90;;;;;;5055782;28;20083;-78
2023/10/17 07:31:20;;;;;;;3.72;1.23;;;7.40;99.90;;;;;;5050699;28;20025;-78
2023/10/17 07:33:47;;;;;;;4.43;1.30;;;7.30;99.90;;;;;;5048852;28;20033;-77
2023/10/17 07:36:15;;;;;;;8.43;1.80;;;7.30;99.90;;;;;;5051580;28;20033;-79
2023/10/17 07:38:43;;;;;;;5.18;1.75;;;7.30;99.90;;;;;;5047761;28;20083;-79
2023/10/17 07:41:13;;;;;;;4.00;1.52;;;7.40;99.90;;;;;;5042309;28;20033;-79
2023/10/17 07:43:45;;;;;;;3.13;1.30;;;7.40;99.90;;;;;;5052305;28;20024;-80
2023/10/17 07:46:16;;;;;;;4.03;1.42;;;7.60;99.90;;;;;;5053675;28;20693;-79
2023/10/17 07:48:48;;;;;;;2.67;1.40;;;7.80;99.90;;;;;;5057051;28;20029;-79
2023/10/17 07:51:16;;;;;;;3.22;1.33;;;7.90;99.90;;;;;;5058365;28;20478;-79
2023/10/17 07:53:48;;;;;;;2.58;1.17;;;8.00;99.90;;;;;;5050164;28;20040;-79
2023/10/17 07:56:20;;;;;;;3.63;1.55;;;7.80;99.90;;;;;;5052700;28;20033;-79
2023/10/17 07:59:04;;;;;;;3.28;1.23;;;7.90;99.90;;;;;;5043274;28;20041;-79
2023/10/17 08:01:46;;;;;;;8.18;1.48;;;8.00;99.90;;;;;;5048431;28;20032;-78
2023/10/17 08:04:23;;;;;;;15.98;2.05;;;8.20;99.90;;;;;;5046304;28;20455;-79
2023/10/17 08:06:50;;;;;;;40.38;3.78;;;8.10;99.90;;;;;;5047324;28;21278;-79
2023/10/17 08:11:54;;;;;;;9.65;2.13;;;8.20;99.90;;;;;;5044858;28;20041;-79
2023/10/17 08:17:08;;;;;;;3.40;1.33;;;8.50;99.90;;;;;;5047753;28;20055;-79
2023/10/17 08:22:19;;;;;;;4.93;1.83;;;8.60;99.90;;;;;;5049691;28;20044;-79
2023/10/17 08:24:51;;;;;;;4.57;1.50;;;8.70;99.90;;;;;;5048945;28;20025;-79
2023/10/17 08:30:01;;;;;;;4.45;1.60;;;8.60;99.90;;;;;;5056483;28;20356;-79
2023/10/17 08:34:58;;;;;;;2.25;1.17;;;8.80;99.90;;;;;;5054909;28;20159;-79
2023/10/17 08:37:28;;;;;;;5.38;1.90;;;8.90;99.90;;;;;;5044663;28;20029;-79
2023/10/17 08:39:56;;;;;;;4.85;1.80;;;8.90;99.90;;;;;;5048281;28;20258;-79
2023/10/17 08:42:36;;;;;;;6.75;1.88;;;8.90;99.90;;;;;;5050656;28;20107;-79
2023/10/17 08:45:05;;;;;;;5.70;2.08;;;9.00;99.90;;;;;;5050593;28;20025;-79
2023/10/17 08:47:32;;;;;;;8.52;2.00;;;9.00;99.90;;;;;;5047277;28;20478;-79
2023/10/17 08:50:05;;;;;;;5.22;1.60;;;9.00;99.90;;;;;;5046118;28;20059;-79
2023/10/17 08:52:35;;;;;;;8.77;2.10;;;9.00;99.90;;;;;;5058089;28;20056;-79
2023/10/17 08:55:04;;;;;;;3.97;1.60;;;9.00;99.90;;;;;;5059085;28;20028;-79
2023/10/17 08:57:31;;;;;;;3.55;1.55;;;9.00;99.90;;;;;;5046796;28;20143;-79
2023/10/17 09:02:35;;;;;;;3.13;1.23;;;9.20;99.90;;;;;;5053224;28;20723;-78
2023/10/17 09:05:26;;;;;;;5.13;1.50;;;9.30;99.90;;;;;;5050316;28;20052;-78
2023/10/17 09:08:02;;;;;;;4.22;1.67;;;9.40;99.90;;;;;;5044763;28;20032;-79
2023/10/17 09:10:39;;;;;;;5.15;1.60;;;9.50;99.90;;;;;;5054099;28;20025;-77
2023/10/17 09:15:50;;;;;;;3.70;1.70;;;9.60;99.90;;;;;;5049409;28;20045;-77
2023/10/17 09:18:27;;;;;;;4.72;1.70;;;9.70;99.90;;;;;;5056298;28;20032;-78
2023/10/17 09:20:56;;;;;;;4.20;1.92;;;10.00;99.90;;;;;;5048164;28;20389;-78
2023/10/17 09:23:23;;;;;;;3.63;1.58;;;10.00;99.90;;;;;;5052285;28;20111;-78
2023/10/17 09:26:10;;;;;;;6.47;2.15;;;10.10;99.90;;;;;;5056606;28;20655;-78
2023/10/17 09:28:37;;;;;;;3.60;1.50;;;10.20;99.90;;;;;;5048816;28;20028;-78
2023/10/17 09:31:06;;;;;;;8.70;2.10;;;10.30;99.90;;;;;;5051864;28;20016;-79
2023/10/17 09:33:34;;;;;;;4.45;1.75;;;10.50;99.90;;;;;;5046054;28;20506;-76
2023/10/17 09:36:04;;;;;;;4.78;1.80;;;10.50;99.90;;;;;;5044119;28;20017;-76
2023/10/17 09:38:34;;;;;;;5.88;2.35;;;10.60;99.90;;;;;;5042888;28;20024;-76
2023/10/17 09:41:05;;;;;;;4.18;1.80;;;10.80;99.90;;;;;;5046776;28;20143;-76
2023/10/17 09:43:30;;;;;;;4.00;1.40;;;10.80;99.90;;;;;;5044242;28;20074;-76
2023/10/17 09:46:04;;;;;;;5.97;1.30;;;10.80;99.90;;;;;;5045212;28;20461;-75
2023/10/17 09:48:36;;;;;;;5.55;2.15;;;10.80;99.90;;;;;;5044016;28;20040;-75
2023/10/17 09:51:03;;;;;;;9.48;1.65;;;10.90;99.90;;;;;;5044697;28;20102;-76
2023/10/17 09:53:35;;;;;;;7.40;1.60;;;11.00;99.90;;;;;;5044165;28;20460;-75
2023/10/17 09:56:07;;;;;;;3.90;1.60;;;11.10;99.90;;;;;;5045291;28;20037;-76
2023/10/17 09:58:37;;;;;;;4.18;2.10;;;11.10;99.90;;;;;;5053611;28;20048;-76
2023/10/17 10:01:20;;;;;;;5.50;1.88;;;11.30;99.90;;;;;;5047904;28;20028;-75
2023/10/17 10:03:48;;;;;;;4.70;1.55;;;11.50;99.90;;;;;;5047622;28;20033;-75
2023/10/17 10:06:25;;;;;;;4.07;1.73;;;11.30;99.60;;;;;;5059068;28;20072;-75
2023/10/17 10:08:55;;;;;;;4.80;2.05;;;11.70;99.90;;;;;;5052566;28;20056;-75
2023/10/17 10:11:41;;;;;;;16.05;2.83;;;11.80;99.90;;;;;;5067366;28;20116;-76
2023/10/17 10:14:11;;;;;;;8.27;2.13;;;11.90;99.90;;;;;;5066655;28;20032;-76
2023/10/17 10:16:53;;;;;;;3.40;1.52;;;11.90;99.60;;;;;;5062466;28;20387;-75
2023/10/17 10:19:22;;;;;;;3.92;2.03;;;11.90;99.10;;;;;;5055754;28;20060;-77
2023/10/17 10:21:58;;;;;;;4.03;1.70;;;11.90;99.00;;;;;;5045756;28;20036;-76
2023/10/17 10:24:29;;;;;;;5.47;1.80;;;12.00;99.00;;;;;;5051900;28;20908;-76
2023/10/17 10:27:16;;;;;;;3.90;1.40;;;11.90;98.40;;;;;;5067136;28;20060;-76
2023/10/17 10:30:17;;;;;;;5.18;1.67;;;12.00;99.10;;;;;;5068364;28;20032;-75
2023/10/17 10:32:44;;;;;;;4.25;1.42;;;12.10;99.20;;;;;;5068312;28;20024;-76
2023/10/17 10:35:11;;;;;;;4.00;1.77;;;12.30;99.30;;;;;;5067204;28;20049;-76
2023/10/17 10:37:54;;;;;;;6.90;1.83;;;12.30;98.50;;;;;;5067681;28;20036;-76
2023/10/17 10:40:30;;;;;;;3.70;1.55;;;12.40;98.70;;;;;;5067996;28;20056;-77
2023/10/17 10:42:59;;;;;;;3.65;1.98;;;12.30;98.60;;;;;;5068174;28;20094;-76
2023/10/17 10:45:35;;;;;;;3.58;1.42;;;12.30;98.20;;;;;;5066857;28;20751;-77
2023/10/17 10:48:26;;;;;;;5.03;2.08;;;12.40;98.30;;;;;;5066130;28;20115;-75
2023/10/17 10:50:55;;;;;;;4.15;1.67;;;12.60;98.60;;;;;;5066929;28;20089;-77
2023/10/17 10:53:28;;;;;;;5.82;1.77;;;12.50;97.80;;;;;;5067596;28;20425;-77
2023/10/17 10:56:02;;;;;;;4.63;2.08;;;12.50;97.90;;;;;;5066011;28;20093;-77
2023/10/17 10:58:33;;;;;;;4.70;1.70;;;12.90;98.50;;;;;;5068084;28;20105;-78
2023/10/17 11:01:07;;;;;;;3.50;1.70;;;12.90;97.90;;;;;;5059745;28;20399;-78
2023/10/17 11:03:39;;;;;;;5.63;1.70;;;13.10;98.00;;;;;;5049790;28;20036;-77
2023/10/17 11:06:08;;;;;;;5.72;1.90;;;13.40;97.90;;;;;;5049719;28;20045;-77
2023/10/17 11:08:45;;;;;;;7.75;1.73;;;13.40;98.20;;;;;;5051053;28;20029;-77
2023/10/17 11:11:13;;;;;;;4.90;1.88;;;13.50;98.20;;;;;;5052176;28;20036;-78
2023/10/17 11:13:46;;;;;;;3.58;1.80;;;13.60;98.00;;;;;;5054237;28;20036;-78
2023/10/17 11:16:19;;;;;;;3.78;1.90;;;13.60;97.40;;;;;;5044987;28;20048;-78
2023/10/17 11:18:45;;;;;;;4.10;2.08;;;13.80;96.90;;;;;;5053827;28;20033;-78
2023/10/17 11:21:14;;;;;;;4.10;1.65;;;13.50;97.00;;;;;;5047173;28;20127;-78
2023/10/17 11:23:45;;;;;;;4.68;2.40;;;13.40;97.20;;;;;;5050162;28;20033;-77
2023/10/17 11:26:12;;;;;;;4.47;1.80;;;13.60;97.80;;;;;;5044771;28;20060;-78
2023/10/17 11:28:42;;;;;;;4.53;2.05;;;13.90;98.00;;;;;;5046570;28;20037;-78
2023/10/17 11:31:21;;;;;;;8.05;2.50;;;13.90;96.90;;;;;;5049405;28;20028;-77
2023/10/17 11:33:52;;;;;;;5.05;1.58;;;13.90;97.00;;;;;;5044848;28;20430;-78
2023/10/17 11:36:19;;;;;;;6.50;2.65;;;14.00;97.60;;;;;;5057054;28;20028;-78
2023/10/17 11:38:56;;;;;;;4.82;1.65;;;14.00;96.90;;;;;;5047380;28;20020;-78
2023/10/17 11:41:29;;;;;;;4.70;1.67;;;14.00;97.00;;;;;;5046233;28;20059;-78
2023/10/17 11:43:54;;;;;;;4.90;1.60;;;14.10;97.00;;;;;;5057918;28;20044;-78
2023/10/17 11:46:33;;;;;;;4.50;1.80;;;14.40;97.50;;;;;;5056150;28;20139;-78
2023/10/17 11:49:33;;;;;;;9.13;2.42;;;14.40;96.50;;;;;;5047630;28;20263;-78
2023/10/17 11:52:05;;;;;;;8.88;1.77;;;14.50;96.50;;;;;;5046047;28;20157;-78
2023/10/17 11:54:32;;;;;;;4.45;1.40;;;14.50;97.00;;;;;;5048985;28;20025;-78
2023/10/17 11:57:14;;;;;;;3.10;1.63;;;14.50;96.20;;;;;;5043815;28;20037;-78
2023/10/17 11:59:56;;;;;;;5.97;2.08;;;14.40;96.20;;;;;;5050651;28;20044;-79
2023/10/17 12:02:22;;;;;;;2.78;1.38;;;14.60;96.80;;;;;;5044434;28;20025;-78
2023/10/17 12:04:48;;;;;;;4.10;1.73;;;14.90;96.40;;;;;;5041093;28;20052;-79
2023/10/17 12:07:15;;;;;;;4.38;1.80;;;15.00;96.10;;;;;;5042652;28;20030;-79
2023/10/17 12:09:40;;;;;;;9.25;1.85;;;14.80;95.80;;;;;;5041899;28;20091;-78
2023/10/17 12:12:06;;;;;;;6.20;1.67;;;14.90;96.00;;;;;;5042570;28;20069;-78
2023/10/17 12:14:35;;;;;;;7.43;1.85;;;14.90;95.70;;;;;;5047828;28;20101;-79
2023/10/17 12:17:00;;;;;;;9.57;1.83;;;14.90;96.00;;;;;;5050054;28;20119;-78
2023/10/17 12:19:27;;;;;;;3.28;1.40;;;14.70;95.60;;;;;;5049803;28;20162;-78
2023/10/17 12:22:00;;;;;;;6.28;1.77;;;14.60;95.70;;;;;;5046551;28;20048;-78
2023/10/17 12:24:29;;;;;;;3.50;1.80;;;14.50;96.10;;;;;;5043471;28;20041;-78
2023/10/17 12:26:58;;;;;;;9.10;2.30;;;14.70;96.10;;;;;;5042618;28;20025;-78
2023/10/17 12:29:25;;;;;;;4.03;1.67;;;15.00;96.70;;;;;;5049376;28;20119;-78
2023/10/17 12:31:57;;;;;;;5.85;1.67;;;15.10;95.70;;;;;;5044136;28;20505;-78
2023/10/17 12:34:23;;;;;;;4.90;2.45;;;15.20;95.60;;;;;;5048396;28;20077;-78
2023/10/17 12:36:49;;;;;;;2.95;1.35;;;15.10;95.70;;;;;;5055395;28;20478;-78
2023/10/17 12:39:16;;;;;;;4.82;1.88;;;15.10;95.80;;;;;;5050799;28;20028;-78
2023/10/17 12:41:43;;;;;;;6.35;2.03;;;15.10;95.70;;;;;;5044229;28;20091;-78
2023/10/17 12:44:09;;;;;;;7.43;2.05;;;15.30;95.90;;;;;;5041099;28;20024;-78
2023/10/17 12:46:35;;;;;;;4.88;1.70;;;15.10;95.30;;;;;;5054946;28;20039;-78
2023/10/17 12:49:01;;;;;;;8.23;2.25;;;15.10;95.80;;;;;;5045249;28;20040;-78
2023/10/17 12:51:27;;;;;;;5.72;2.25;;;15.00;95.50;;;;;;5053183;28;20555;-78
2023/10/17 12:53:54;;;;;;;3.53;1.58;;;14.90;95.60;;;;;;5042633;28;20040;-78
2023/10/17 12:56:20;;;;;;;5.85;1.75;;;14.90;95.80;;;;;;5040444;28;20029;-78
2023/10/17 12:58:46;;;;;;;3.53;1.88;;;14.80;95.50;;;;;;5050133;28;20101;-78
2023/10/17 13:01:12;;;;;;;6.40;1.60;;;14.70;95.60;;;;;;5051418;28;20449;-78
2023/10/17 13:03:38;;;;;;;3.83;1.85;;;15.00;96.20;;;;;;5042982;28;20032;-78
2023/10/17 13:06:09;;;;;;;5.07;1.63;;;15.20;95.90;;;;;;5050517;28;21011;-78
2023/10/17 13:08:35;;;;;;;8.32;2.58;;;15.40;95.50;;;;;;5055555;28;20037;-77
2023/10/17 13:11:04;;;;;;;6.50;2.28;;;15.50;95.20;;;;;;5042424;28;20044;-77
2023/10/17 13:13:30;;;;;;;4.13;1.65;;;15.30;95.10;;;;;;5043226;28;20238;-77
2023/10/17 13:15:57;;;;;;;5.70;2.22;;;15.30;95.70;;;;;;5059746;28;20099;-78
2023/10/17 13:18:28;;;;;;;3.53;1.52;;;15.70;95.90;;;;;;5045803;28;20040;-77
2023/10/17 13:20:57;;;;;;;23.88;2.60;;;15.90;95.70;;;;;;5045088;28;20033;-77
2023/10/17 13:23:23;;;;;;;4.22;1.98;;;15.80;94.90;;;;;;5052396;28;20112;-77
2023/10/17 13:25:49;;;;;;;5.50;2.33;;;15.90;95.60;;;;;;5052174;28;20119;-78
2023/10/17 13:28:16;;;;;;;5.53;1.85;;;15.90;95.00;;;;;;5042634;28;20112;-77
2023/10/17 13:30:42;;;;;;;6.28;1.88;;;15.70;95.10;;;;;;5044499;28;20579;-77
2023/10/17 13:33:08;;;;;;;4.45;2.13;;;15.90;95.40;;;;;;5045996;28;20025;-78
2023/10/17 13:35:37;;;;;;;5.82;1.90;;;15.80;95.10;;;;;;5052243;28;20107;-78
2023/10/17 13:38:03;;;;;;;5.30;1.73;;;15.80;95.30;;;;;;5054280;28;20041;-78
2023/10/17 13:40:32;;;;;;;5.07;1.83;;;16.00;95.40;;;;;;5049182;28;20108;-78
2023/10/17 13:43:00;;;;;;;6.50;1.77;;;16.10;95.20;;;;;;5040392;28;20025;-78
2023/10/17 13:45:29;;;;;;;4.47;2.00;;;16.20;95.30;;;;;;5049392;28;20113;-78
2023/10/17 13:47:55;;;;;;;6.22;2.42;;;16.30;95.60;;;;;;5048176;28;20025;-78
2023/10/17 13:50:22;;;;;;;6.22;1.85;;;16.20;95.70;;;;;;5048388;28;20025;-78
2023/10/17 13:52:49;;;;;;;7.93;1.88;;;16.10;95.60;;;;;;5050220;28;20028;-78
2023/10/17 13:55:36;;;;;;;9.13;2.55;;;16.10;95.40;;;;;;5049048;28;20025;-77
2023/10/17 13:58:01;;;;;;;2.90;1.30;;;16.00;95.60;;;;;;5042757;28;20391;-78
2023/10/17 14:00:36;;;;;;;7.57;1.48;;;16.10;95.80;;;;;;5045120;28;20032;-77
2023/10/17 14:03:06;;;;;;;5.35;2.00;;;15.90;95.60;;;;;;5055798;28;20025;-78
2023/10/17 14:05:31;;;;;;;5.68;1.70;;;15.80;95.20;;;;;;5052883;28;20048;-78
2023/10/17 14:07:57;;;;;;;3.28;1.63;;;15.90;95.50;;;;;;5048721;28;20045;-77
2023/10/17 14:10:24;;;;;;;4.32;2.05;;;16.10;95.40;;;;;;5051904;28;20040;-78
2023/10/17 14:12:51;;;;;;;5.00;1.80;;;15.80;95.30;;;;;;5056459;28;20073;-78
2023/10/17 14:15:17;;;;;;;8.75;2.30;;;16.00;96.30;;;;;;5055829;28;20029;-78
2023/10/17 14:17:45;;;;;;;3.92;1.65;;;16.00;95.50;;;;;;5050453;28;20047;-78
2023/10/17 14:20:17;;;;;;;6.60;2.17;;;16.00;95.50;;;;;;5043592;28;20188;-78
2023/10/17 14:23:08;;;;;;;7.00;2.03;;;15.90;95.10;;;;;;5054383;28;20048;-78
2023/10/17 14:28:16;;;;;;;9.85;2.33;;;16.20;95.70;;;;;;5046819;28;20091;-78
2023/10/17 14:30:42;;;;;;;7.40;1.85;;;16.20;95.00;;;;;;5053881;28;20056;-78
2023/10/17 14:33:10;;;;;;;10.45;2.20;;;16.20;95.50;;;;;;5053969;28;20147;-78
2023/10/17 14:35:36;;;;;;;10.15;1.88;;;16.10;95.10;;;;;;5058843;28;20031;-78
2023/10/17 14:38:02;;;;;;;6.78;2.10;;;16.10;95.60;;;;;;5054246;28;20119;-78
2023/10/17 14:40:29;;;;;;;5.55;1.90;;;16.10;95.20;;;;;;5049340;28;20048;-78
2023/10/17 14:42:55;;;;;;;6.68;1.52;;;16.00;95.20;;;;;;5057839;28;20024;-78
2023/10/17 14:45:24;;;;;;;5.00;1.50;;;15.90;95.50;;;;;;5053288;28;20033;-78
2023/10/17 14:47:50;;;;;;;5.28;1.70;;;15.90;95.80;;;;;;5049128;28;20031;-78
2023/10/17 14:50:16;;;;;;;5.80;1.63;;;15.90;96.00;;;;;;5043867;28;20052;-78
2023/10/17 14:52:42;;;;;;;6.50;1.95;;;15.90;95.60;;;;;;5050729;28;20487;-78
2023/10/17 14:55:14;;;;;;;6.50;1.48;;;16.00;95.60;;;;;;5043344;28;20039;-78
2023/10/17 14:57:41;;;;;;;8.27;1.80;;;15.90;95.80;;;;;;5046394;28;20086;-78
2023/10/17 15:00:11;;;;;;;7.10;2.28;;;15.70;95.80;;;;;;5043095;28;20112;-78
2023/10/17 15:02:39;;;;;;;4.55;1.67;;;15.60;96.30;;;;;;5049890;28;20037;-79
2023/10/17 15:05:07;;;;;;;10.80;4.57;;;15.50;95.50;;;;;;5046406;28;20045;-79
2023/10/17 15:07:34;;;;;;;5.13;2.25;;;15.60;96.20;;;;;;5047196;28;20025;-78
2023/10/17 15:10:00;;;;;;;3.72;1.67;;;15.40;95.90;;;;;;5055120;28;20067;-79
2023/10/17 15:12:25;;;;;;;6.65;1.90;;;15.40;96.00;;;;;;5046078;28;20031;-79
2023/10/17 15:14:51;;;;;;;3.95;1.77;;;15.40;96.40;;;;;;5043808;28;20452;-78
2023/10/17 15:17:18;;;;;;;5.05;1.88;;;15.20;96.30;;;;;;5049137;28;20040;-79
2023/10/17 15:19:44;;;;;;;7.68;2.50;;;15.30;96.30;;;;;;5045368;28;20029;-79
2023/10/17 15:22:09;;;;;;;3.45;1.95;;;15.30;96.40;;;;;;5049558;28;20031;-79